Whitewater Creek, Colorado (Grand Mesa) Weather observations

Data are for observation ending at time listed.
 Day   Time    Ave.   Ave.  Ave.  Vector   Max.    Total    Solar   Ave.  
  of    of     Air    Rel.  Wind   Wind    Wind   Precip.   Rad.    Soil  
Year   Day     Temp.  Hum.  Speed  Dir.    Gust                     Temp. 
2015   (MST)    F      %     mph   deg.    mph      in.     W/m2     F   
------------------------------------------------------------------------------
  29    0:00   19.7    92    2.2   348      2.2    99999.00   99999    99999.0
  29    0:10   20.5    92    2.2   348      2.2    99999.00   99999    99999.0
  29    0:20   20.4    91    2.2   348      2.2    99999.00   99999    99999.0
  29    0:30   20.7    91    2.2   348      2.2    99999.00   99999    99999.0
  29    0:40   21.9    86    2.2   348      2.2    99999.00   99999    99999.0
  29    0:50   20.1    84    2.2    22      2.2    99999.00   99999    99999.0
  29    1:00   22.3    87    2.2    39      2.2    99999.00   99999    99999.0
  29    1:10   23.7    87    2.2    42      2.2    99999.00   99999    99999.0
  29    1:20   23.6    87    2.2    45      2.2    99999.00   99999    99999.0
  29    1:30   23.4    88    2.2    47      2.2    99999.00   99999    99999.0
  29    1:40   22.1    89    2.2    47      2.2    99999.00   99999    99999.0
  29    1:50   22.4    89    2.2    47      2.2    99999.00   99999    99999.0
  29    2:00   22.2    89    2.2    47      2.2    99999.00   99999    99999.0
  29    2:10   22.6    88    2.2    47      2.2    99999.00   99999    99999.0
  29    2:20   21.0    89    2.2    47      2.2    99999.00   99999    99999.0
  29    2:30   20.5    90    2.2    47      2.2    99999.00   99999    99999.0
  29    2:40   21.0    90    2.2    47      2.2    99999.00   99999    99999.0
  29    2:50   21.0    88    2.2    47      2.2    99999.00   99999    99999.0
  29    3:00   19.7    87    2.2    46      2.2    99999.00   99999    99999.0
  29    3:10   22.5    89    2.2    34      2.2    99999.00   99999    99999.0
  29    3:20   23.9    86    2.2    35      2.2    99999.00   99999    99999.0
  29    3:30   22.4    88    2.2    38      2.2    99999.00   99999    99999.0
  29    3:40   21.0    90    2.2    39      2.2    99999.00   99999    99999.0
  29    3:50   20.0    92    2.2    39      2.2    99999.00   99999    99999.0
  29    4:00   19.9    92    2.2    39      2.2    99999.00   99999    99999.0
  29    4:10   21.7    89    2.2    40      2.2    99999.00   99999    99999.0
  29    4:20   22.7    86    2.2    43      2.2    99999.00   99999    99999.0
  29    4:30   23.2    86    2.2    44      2.2    99999.00   99999    99999.0
  29    4:40   22.8    88    2.2    40      2.2    99999.00   99999    99999.0
  29    4:50   23.6    88    2.2    41      2.2    99999.00   99999    99999.0
  29    5:00   23.9    86    2.2    47      2.2    99999.00   99999    99999.0
  29    5:10   24.5    87    5.3    47      6.1    99999.00   99999    99999.0
  29    5:20   24.4    86    5.5    44      7.4    99999.00   99999    99999.0
  29    5:30   24.7    85    5.0    39      6.1    99999.00   99999    99999.0
  29    5:40   24.8    85    4.4    37      6.1    99999.00   99999    99999.0
  29    5:50   24.6    86    5.0    36      6.1    99999.00   99999    99999.0
  29    6:00   24.4    87    4.7    31      6.1    99999.00   99999    99999.0
  29    6:10   24.4    88    4.1    31      4.8    99999.00   99999    99999.0
  29    6:20   24.1    87    3.4    31      4.8    99999.00   99999    99999.0
  29    6:30   23.6    87    3.0    31      4.8    99999.00   99999    99999.0
  29    6:40   21.5    89    2.2    31      2.2    99999.00   99999    99999.0
  29    6:50   21.7    91    2.2    31      2.2    99999.00   99999    99999.0
  29    7:00   22.3    89    2.2    31      2.2    99999.00   99999    99999.0
  29    7:10   23.0    85    2.2    31      2.2    99999.00   99999    99999.0
  29    7:20   23.4    84    2.2    31      2.2    99999.00   99999    99999.0
  29    7:30   24.0    81    2.2    38      2.2    99999.00   99999    99999.0
  29    7:40   24.3    78    3.0    57      4.8    99999.00   99999    99999.0
  29    7:50   23.5    77    2.2    58      3.5    99999.00   99999    99999.0
  29    8:00   22.4    80    2.2    58      2.2    99999.00   99999    99999.0
  29    8:10   21.6    82    2.2    58      2.2    99999.00   99999    99999.0
  29    8:20   21.1    83    2.2    58      2.2    99999.00   99999    99999.0
  29    8:30   20.5    83    2.2    58      2.2    99999.00   99999    99999.0
  29    8:40   20.8    82    2.2    58      2.2    99999.00   99999    99999.0
  29    8:50   22.6    74    2.3    58      3.5    99999.00   99999    99999.0
  29    9:00   23.5    71    2.2    58      2.2    99999.00   99999    99999.0
  29    9:10   25.1    66    2.2    58      2.2    99999.00   99999    99999.0
  29    9:20   26.7    60    2.2    58      2.2    99999.00   99999    99999.0
  29    9:30   26.8    59    2.2    58      2.2    99999.00   99999    99999.0
  29    9:40   28.1    56    2.2    58      2.2    99999.00   99999    99999.0
  29    9:50   31.0    49    2.2    58      2.2    99999.00   99999    99999.0
  29   10:00   31.0    50    2.2    58      2.2    99999.00   99999    99999.0
  29   10:10   29.9    54    2.2    54      2.2    99999.00   99999    99999.0
  29   10:20   30.4    52    2.8    53      7.4    99999.00   99999    99999.0
  29   10:30   31.4    51    2.7    56      6.1    99999.00   99999    99999.0
  29   10:40   31.5    50    2.2    58      2.2    99999.00   99999    99999.0
  29   10:50   34.4    45    2.2    56      2.2    99999.00   99999    99999.0
  29   11:00   33.9    46    3.9   150      9.9    99999.00   99999    99999.0
  29   11:10   32.0    49    5.2   140      9.9    99999.00   99999    99999.0
  29   11:20   32.8    48    4.7   138      8.6    99999.00   99999    99999.0
  29   11:30   33.3    47    5.8   151      9.9    99999.00   99999    99999.0
  29   11:40   33.4    47    4.8   131      9.9    99999.00   99999    99999.0
  29   11:50   33.3    47    6.3   138     11.2    99999.00   99999    99999.0
  29   12:00   33.1    48    5.8   136     11.2    99999.00   99999    99999.0
  29   12:10   34.3    48    3.4   144      6.1    99999.00   99999    99999.0
  29   12:20   33.4    54    7.9   208     13.8    99999.00   99999    99999.0
  29   12:30   32.0    58    8.7   208     15.0    99999.00   99999    99999.0
  29   12:40   31.6    61    8.0   212     11.2    99999.00   99999    99999.0
  29   12:50   32.5    59    6.4   206     11.2    99999.00   99999    99999.0
  29   13:00   33.6    54    5.8   160     11.2    99999.00   99999    99999.0
  29   13:10   33.9    52    7.4   159     11.2    99999.00   99999    99999.0
  29   13:20   34.6    54    6.1   192     11.2    99999.00   99999    99999.0
  29   13:30   35.0    51    5.5   172     11.2    99999.00   99999    99999.0
  29   13:40   34.6    55    6.4   198     13.8    99999.00   99999    99999.0
  29   13:50   34.1    57    7.8   199     13.8    99999.00   99999    99999.0
  29   14:00   34.4    54    6.8   170     12.5    99999.00   99999    99999.0
  29   14:10   34.3    52    7.8   167     13.8    99999.00   99999    99999.0
  29   14:20   34.2    52   10.1   186     16.3    99999.00   99999    99999.0
  29   14:30   33.1    52   11.5   191     18.9    99999.00   99999    99999.0
  29   14:40   32.8    52   11.1   190     16.3    99999.00   99999    99999.0
  29   14:50   32.4    54   11.6   201     17.6    99999.00   99999    99999.0
  29   15:00   32.2    56   12.1   198     17.6    99999.00   99999    99999.0
  29   15:10   32.6    55    9.3   196     15.0    99999.00   99999    99999.0
  29   15:20   32.7    53    9.7   194     12.5    99999.00   99999    99999.0
  29   15:30   32.4    53   12.8   202     17.6    99999.00   99999    99999.0
  29   15:40   31.9    55   14.6   205     17.6    99999.00   99999    99999.0
  29   15:50   31.6    58   15.2   204     18.9    99999.00   99999    99999.0
  29   16:00   31.7    58   13.7   203     18.9    99999.00   99999    99999.0
  29   16:10   31.4    59   13.7   207     17.6    99999.00   99999    99999.0
  29   16:20   31.2    60   14.3   208     18.9    99999.00   99999    99999.0
  29   16:30   31.3    60   15.7   205     20.2    99999.00   99999    99999.0
  29   16:40   31.1    60   15.5   206     18.9    99999.00   99999    99999.0
  29   16:50   30.9    59   17.7   202     22.7    99999.00   99999    99999.0
  29   17:00   30.8    60   12.9   200     17.6    99999.00   99999    99999.0
  29   17:10   31.0    59   11.3   198     15.0    99999.00   99999    99999.0
  29   17:20   30.8    60   12.2   200     18.9    99999.00   99999    99999.0
  29   17:30   30.4    62   13.1   203     15.0    99999.00   99999    99999.0
  29   17:40   29.3    66   12.6   209     17.6    99999.00   99999    99999.0
  29   17:50   29.3    66   12.8   209     16.3    99999.00   99999    99999.0
  29   18:00   28.6    68    9.6   218     13.8    99999.00   99999    99999.0
  29   18:10   28.3    69    9.7   213     12.5    99999.00   99999    99999.0
  29   18:20   28.1    69   10.2   207     15.0    99999.00   99999    99999.0
  29   18:30   28.8    67   13.4   203     17.6    99999.00   99999    99999.0
  29   18:40   28.8    68   13.1   203     16.3    99999.00   99999    99999.0
  29   18:50   28.7    69   13.6   202     16.3    99999.00   99999    99999.0
  29   19:00   28.7    69   12.3   203     15.0    99999.00   99999    99999.0
  29   19:10   28.8    68   12.0   201     15.0    99999.00   99999    99999.0
  29   19:20   28.8    69   12.5   204     16.3    99999.00   99999    99999.0
  29   19:30   28.8    70   13.0   206     17.6    99999.00   99999    99999.0
  29   19:40   28.7    73   14.1   205     20.2    99999.00   99999    99999.0
  29   19:50   28.5    75   15.9   208     20.2    99999.00   99999    99999.0
  29   20:00   28.1    78   16.0   205     22.7    99999.00   99999    99999.0
  29   20:10   27.7    81   17.2   203     21.4    99999.00   99999    99999.0
  29   20:20   27.4    84   17.9   202     21.4    99999.00   99999    99999.0
  29   20:30   26.8    88   16.4   205     20.2    99999.00   99999    99999.0
  29   20:40   26.4    92   16.2   205     18.9    99999.00   99999    99999.0
  29   20:50   26.3    94   14.4   203     17.6    99999.00   99999    99999.0
  29   21:00   26.3    93   11.6   197     16.3    99999.00   99999    99999.0
  29   21:10   26.3    92   12.4   189     18.9    99999.00   99999    99999.0
  29   21:20   26.2    92   11.0   186     16.3    99999.00   99999    99999.0
  29   21:30   26.1    93   11.5   187     16.3    99999.00   99999    99999.0
  29   21:40   26.1    94   11.3   190     16.3    99999.00   99999    99999.0
  29   21:50   26.1    94    9.8   183     15.0    99999.00   99999    99999.0
  29   22:00   26.1    95    8.6   180     15.0    99999.00   99999    99999.0
  29   22:10   26.0    95    8.7   179     16.3    99999.00   99999    99999.0
  29   22:20   26.2    94    8.2   179     12.5    99999.00   99999    99999.0
  29   22:30   26.4    93    7.9   178     13.8    99999.00   99999    99999.0
  29   22:40   26.6    92    8.7   173     13.8    99999.00   99999    99999.0
  29   22:50   26.7    92    8.8   175     13.8    99999.00   99999    99999.0
  29   23:00   27.0    91    8.8   180     15.0    99999.00   99999    99999.0
  29   23:10   27.3    91   10.0   185     16.3    99999.00   99999    99999.0
  29   23:20   27.5    92   11.5   189     16.3    99999.00   99999    99999.0
  29   23:30   27.5    92   12.2   190     18.9    99999.00   99999    99999.0
  29   23:40   27.5    94   13.6   194     18.9    99999.00   99999    99999.0
  29   23:50   27.5    94   14.4   197     20.2    99999.00   99999    99999.0

Return to Whitewater Creek, Colorado graphs page.


Western Regional Climate Center,wrcc@dri.edu